National Weather Service Raw Text Product

Displaying AFOS PIL: TAFOTM Received: 2017-08-13 05:20 UTC


547 
FTUS43 KDMX 130520
TAFOTM
TAF
KOTM 130520Z 1306/1406 11004KT P6SM SCT200=